sensor_id;sensor_type;location;lat;lon;timestamp;P1;durP1;ratioP1;P2;durP2;ratioP2
30677;SDS011;73746;47.466;8.992;2024-03-08T00:02:22;50.43;;;30.35;;
30677;SDS011;73746;47.466;8.992;2024-03-08T00:04:54;44.08;;;25.55;;
30677;SDS011;73746;47.466;8.992;2024-03-08T00:07:26;47.33;;;30.37;;
30677;SDS011;73746;47.466;8.992;2024-03-08T00:09:57;49.13;;;27.82;;
30677;SDS011;73746;47.466;8.992;2024-03-08T00:12:29;45.43;;;27.17;;
30677;SDS011;73746;47.466;8.992;2024-03-08T00:15:01;49.48;;;27.45;;
30677;SDS011;73746;47.466;8.992;2024-03-08T00:17:36;48.42;;;28.60;;
30677;SDS011;73746;47.466;8.992;2024-03-08T00:20:09;51.68;;;27.55;;
30677;SDS011;73746;47.466;8.992;2024-03-08T00:25:35;45.98;;;29.40;;
30677;SDS011;73746;47.466;8.992;2024-03-08T00:28:08;56.75;;;31.75;;
30677;SDS011;73746;47.466;8.992;2024-03-08T00:30:41;52.38;;;28.10;;
30677;SDS011;73746;47.466;8.992;2024-03-08T00:33:14;54.35;;;28.85;;
30677;SDS011;73746;47.466;8.992;2024-03-08T00:35:46;47.80;;;28.32;;
30677;SDS011;73746;47.466;8.992;2024-03-08T00:38:18;50.23;;;28.67;;
30677;SDS011;73746;47.466;8.992;2024-03-08T00:40:49;41.75;;;23.35;;
30677;SDS011;73746;47.466;8.992;2024-03-08T00:43:21;50.15;;;26.25;;
30677;SDS011;73746;47.466;8.992;2024-03-08T00:45:53;56.77;;;29.12;;
30677;SDS011;73746;47.466;8.992;2024-03-08T00:48:25;55.00;;;29.82;;
30677;SDS011;73746;47.466;8.992;2024-03-08T00:50:57;42.55;;;26.30;;
30677;SDS011;73746;47.466;8.992;2024-03-08T00:53:29;46.45;;;25.00;;
30677;SDS011;73746;47.466;8.992;2024-03-08T00:56:00;52.88;;;28.85;;
30677;SDS011;73746;47.466;8.992;2024-03-08T00:58:33;48.87;;;25.25;;
30677;SDS011;73746;47.466;8.992;2024-03-08T01:01:06;52.58;;;28.10;;
30677;SDS011;73746;47.466;8.992;2024-03-08T01:03:39;45.80;;;25.80;;
30677;SDS011;73746;47.466;8.992;2024-03-08T01:06:12;54.38;;;27.60;;
30677;SDS011;73746;47.466;8.992;2024-03-08T01:08:44;52.10;;;26.95;;
30677;SDS011;73746;47.466;8.992;2024-03-08T01:11:15;50.17;;;30.65;;
30677;SDS011;73746;47.466;8.992;2024-03-08T01:13:47;50.80;;;29.92;;
30677;SDS011;73746;47.466;8.992;2024-03-08T01:16:19;53.00;;;27.65;;
30677;SDS011;73746;47.466;8.992;2024-03-08T01:18:57;55.83;;;29.67;;
30677;SDS011;73746;47.466;8.992;2024-03-08T01:21:29;48.70;;;25.30;;
30677;SDS011;73746;47.466;8.992;2024-03-08T01:24:01;53.58;;;28.07;;
30677;SDS011;73746;47.466;8.992;2024-03-08T01:26:33;49.80;;;28.40;;
30677;SDS011;73746;47.466;8.992;2024-03-08T01:29:05;52.43;;;29.72;;
30677;SDS011;73746;47.466;8.992;2024-03-08T01:31:37;52.45;;;28.35;;
30677;SDS011;73746;47.466;8.992;2024-03-08T01:34:09;57.58;;;31.52;;
30677;SDS011;73746;47.466;8.992;2024-03-08T01:36:40;50.25;;;27.40;;
30677;SDS011;73746;47.466;8.992;2024-03-08T01:39:12;52.13;;;29.48;;
30677;SDS011;73746;47.466;8.992;2024-03-08T01:41:44;48.95;;;27.45;;
30677;SDS011;73746;47.466;8.992;2024-03-08T01:44:15;52.85;;;28.32;;
30677;SDS011;73746;47.466;8.992;2024-03-08T01:46:47;48.52;;;29.40;;
30677;SDS011;73746;47.466;8.992;2024-03-08T01:49:22;47.13;;;28.67;;
30677;SDS011;73746;47.466;8.992;2024-03-08T01:51:56;50.28;;;27.17;;
30677;SDS011;73746;47.466;8.992;2024-03-08T01:54:27;46.28;;;26.60;;
30677;SDS011;73746;47.466;8.992;2024-03-08T01:57:00;51.40;;;27.87;;
30677;SDS011;73746;47.466;8.992;2024-03-08T02:02:14;45.38;;;27.82;;
30677;SDS011;73746;47.466;8.992;2024-03-08T02:04:48;46.75;;;27.13;;
30677;SDS011;73746;47.466;8.992;2024-03-08T02:07:28;43.80;;;23.18;;
30677;SDS011;73746;47.466;8.992;2024-03-08T02:10:00;48.90;;;25.72;;
30677;SDS011;73746;47.466;8.992;2024-03-08T02:12:32;45.40;;;26.73;;
30677;SDS011;73746;47.466;8.992;2024-03-08T02:15:05;48.23;;;26.20;;
30677;SDS011;73746;47.466;8.992;2024-03-08T02:17:37;48.83;;;28.75;;
30677;SDS011;73746;47.466;8.992;2024-03-08T02:20:10;43.02;;;24.60;;
30677;SDS011;73746;47.466;8.992;2024-03-08T02:22:43;52.48;;;27.87;;
30677;SDS011;73746;47.466;8.992;2024-03-08T02:25:14;48.80;;;25.12;;
30677;SDS011;73746;47.466;8.992;2024-03-08T02:27:46;47.50;;;24.07;;
30677;SDS011;73746;47.466;8.992;2024-03-08T02:30:18;43.05;;;23.65;;
30677;SDS011;73746;47.466;8.992;2024-03-08T02:32:50;51.53;;;28.12;;
30677;SDS011;73746;47.466;8.992;2024-03-08T02:35:22;52.08;;;27.20;;
30677;SDS011;73746;47.466;8.992;2024-03-08T02:37:53;42.65;;;23.95;;
30677;SDS011;73746;47.466;8.992;2024-03-08T02:40:25;42.48;;;23.52;;
30677;SDS011;73746;47.466;8.992;2024-03-08T02:42:56;53.38;;;31.93;;
30677;SDS011;73746;47.466;8.992;2024-03-08T02:45:28;46.65;;;24.75;;
30677;SDS011;73746;47.466;8.992;2024-03-08T02:48:00;45.75;;;26.33;;
30677;SDS011;73746;47.466;8.992;2024-03-08T02:53:15;43.20;;;23.05;;
30677;SDS011;73746;47.466;8.992;2024-03-08T02:55:48;49.90;;;28.10;;
30677;SDS011;73746;47.466;8.992;2024-03-08T02:58:20;40.10;;;21.42;;
30677;SDS011;73746;47.466;8.992;2024-03-08T03:00:52;36.38;;;19.82;;
30677;SDS011;73746;47.466;8.992;2024-03-08T03:03:24;45.85;;;27.40;;
30677;SDS011;73746;47.466;8.992;2024-03-08T03:05:56;37.70;;;22.77;;
30677;SDS011;73746;47.466;8.992;2024-03-08T03:08:28;46.18;;;24.57;;
30677;SDS011;73746;47.466;8.992;2024-03-08T03:10:59;36.03;;;21.42;;
30677;SDS011;73746;47.466;8.992;2024-03-08T03:13:31;36.95;;;23.47;;
30677;SDS011;73746;47.466;8.992;2024-03-08T03:16:04;40.33;;;23.87;;
30677;SDS011;73746;47.466;8.992;2024-03-08T03:18:36;38.33;;;20.50;;
30677;SDS011;73746;47.466;8.992;2024-03-08T03:21:08;39.98;;;24.55;;
30677;SDS011;73746;47.466;8.992;2024-03-08T03:23:40;41.75;;;23.90;;
30677;SDS011;73746;47.466;8.992;2024-03-08T03:26:12;43.80;;;24.00;;
30677;SDS011;73746;47.466;8.992;2024-03-08T03:28:45;48.00;;;27.77;;
30677;SDS011;73746;47.466;8.992;2024-03-08T03:31:17;42.00;;;25.25;;
30677;SDS011;73746;47.466;8.992;2024-03-08T03:36:39;48.13;;;26.52;;
30677;SDS011;73746;47.466;8.992;2024-03-08T03:39:11;44.00;;;22.07;;
30677;SDS011;73746;47.466;8.992;2024-03-08T03:44:36;55.30;;;27.40;;
30677;SDS011;73746;47.466;8.992;2024-03-08T03:47:08;45.28;;;23.95;;
30677;SDS011;73746;47.466;8.992;2024-03-08T03:49:40;42.00;;;23.57;;
30677;SDS011;73746;47.466;8.992;2024-03-08T03:52:11;40.90;;;23.40;;
30677;SDS011;73746;47.466;8.992;2024-03-08T03:54:44;45.10;;;26.30;;
30677;SDS011;73746;47.466;8.992;2024-03-08T04:00:07;50.35;;;25.00;;
30677;SDS011;73746;47.466;8.992;2024-03-08T04:02:40;52.25;;;26.50;;
30677;SDS011;73746;47.466;8.992;2024-03-08T04:05:12;47.70;;;28.75;;
30677;SDS011;73746;47.466;8.992;2024-03-08T04:07:44;47.40;;;26.42;;
30677;SDS011;73746;47.466;8.992;2024-03-08T04:10:16;51.83;;;26.62;;
30677;SDS011;73746;47.466;8.992;2024-03-08T04:12:48;51.30;;;25.60;;
30677;SDS011;73746;47.466;8.992;2024-03-08T04:15:20;55.12;;;29.57;;
30677;SDS011;73746;47.466;8.992;2024-03-08T04:17:52;53.28;;;26.85;;
30677;SDS011;73746;47.466;8.992;2024-03-08T04:20:26;41.75;;;24.75;;
30677;SDS011;73746;47.466;8.992;2024-03-08T04:22:57;55.28;;;28.92;;
30677;SDS011;73746;47.466;8.992;2024-03-08T04:25:29;50.52;;;24.80;;
30677;SDS011;73746;47.466;8.992;2024-03-08T04:28:01;50.28;;;29.85;;
30677;SDS011;73746;47.466;8.992;2024-03-08T04:36:05;53.40;;;25.75;;
30677;SDS011;73746;47.466;8.992;2024-03-08T04:38:37;54.53;;;28.38;;
30677;SDS011;73746;47.466;8.992;2024-03-08T04:41:10;56.18;;;29.20;;
30677;SDS011;73746;47.466;8.992;2024-03-08T04:43:41;50.35;;;26.05;;
30677;SDS011;73746;47.466;8.992;2024-03-08T04:46:13;55.48;;;28.07;;
30677;SDS011;73746;47.466;8.992;2024-03-08T04:48:45;56.77;;;26.73;;
30677;SDS011;73746;47.466;8.992;2024-03-08T04:51:18;54.25;;;26.33;;
30677;SDS011;73746;47.466;8.992;2024-03-08T04:53:49;54.10;;;27.32;;
30677;SDS011;73746;47.466;8.992;2024-03-08T04:56:21;56.15;;;30.32;;
30677;SDS011;73746;47.466;8.992;2024-03-08T05:01:37;50.25;;;26.62;;
30677;SDS011;73746;47.466;8.992;2024-03-08T05:04:09;49.38;;;25.72;;
30677;SDS011;73746;47.466;8.992;2024-03-08T05:06:40;54.42;;;26.57;;
30677;SDS011;73746;47.466;8.992;2024-03-08T05:09:12;42.30;;;23.85;;
30677;SDS011;73746;47.466;8.992;2024-03-08T05:11:45;52.38;;;26.35;;
30677;SDS011;73746;47.466;8.992;2024-03-08T05:14:17;55.63;;;29.40;;
30677;SDS011;73746;47.466;8.992;2024-03-08T05:16:49;55.40;;;29.55;;
30677;SDS011;73746;47.466;8.992;2024-03-08T05:19:21;60.78;;;26.62;;
30677;SDS011;73746;47.466;8.992;2024-03-08T05:21:53;53.02;;;27.80;;
30677;SDS011;73746;47.466;8.992;2024-03-08T05:24:25;55.78;;;30.32;;
30677;SDS011;73746;47.466;8.992;2024-03-08T05:26:56;57.62;;;27.07;;
30677;SDS011;73746;47.466;8.992;2024-03-08T05:29:30;54.00;;;26.77;;
30677;SDS011;73746;47.466;8.992;2024-03-08T05:32:02;45.25;;;23.83;;
30677;SDS011;73746;47.466;8.992;2024-03-08T05:34:34;49.20;;;27.00;;
30677;SDS011;73746;47.466;8.992;2024-03-08T05:37:06;54.42;;;27.07;;
30677;SDS011;73746;47.466;8.992;2024-03-08T05:39:38;53.17;;;26.90;;
30677;SDS011;73746;47.466;8.992;2024-03-08T05:42:10;49.03;;;23.55;;
30677;SDS011;73746;47.466;8.992;2024-03-08T05:44:42;44.27;;;25.92;;
30677;SDS011;73746;47.466;8.992;2024-03-08T05:47:13;46.18;;;27.05;;
30677;SDS011;73746;47.466;8.992;2024-03-08T05:49:47;45.92;;;23.25;;
30677;SDS011;73746;47.466;8.992;2024-03-08T05:52:19;47.88;;;23.87;;
30677;SDS011;73746;47.466;8.992;2024-03-08T05:54:50;44.27;;;23.60;;
30677;SDS011;73746;47.466;8.992;2024-03-08T06:00:07;46.42;;;24.75;;
30677;SDS011;73746;47.466;8.992;2024-03-08T06:02:40;45.03;;;23.73;;
30677;SDS011;73746;47.466;8.992;2024-03-08T06:10:36;42.23;;;22.50;;
30677;SDS011;73746;47.466;8.992;2024-03-08T06:13:08;47.43;;;25.10;;
30677;SDS011;73746;47.466;8.992;2024-03-08T06:15:41;42.58;;;24.23;;
30677;SDS011;73746;47.466;8.992;2024-03-08T06:18:13;42.70;;;22.58;;
30677;SDS011;73746;47.466;8.992;2024-03-08T06:20:45;45.67;;;24.35;;
30677;SDS011;73746;47.466;8.992;2024-03-08T06:23:17;41.28;;;24.27;;
30677;SDS011;73746;47.466;8.992;2024-03-08T06:25:50;41.02;;;19.57;;
30677;SDS011;73746;47.466;8.992;2024-03-08T06:28:22;45.15;;;24.23;;
30677;SDS011;73746;47.466;8.992;2024-03-08T06:33:37;41.37;;;23.75;;
30677;SDS011;73746;47.466;8.992;2024-03-08T06:38:59;43.07;;;21.50;;
30677;SDS011;73746;47.466;8.992;2024-03-08T06:41:33;42.05;;;21.50;;
30677;SDS011;73746;47.466;8.992;2024-03-08T06:44:06;42.23;;;23.62;;
30677;SDS011;73746;47.466;8.992;2024-03-08T06:46:38;40.15;;;20.97;;
30677;SDS011;73746;47.466;8.992;2024-03-08T06:49:09;37.05;;;21.17;;
30677;SDS011;73746;47.466;8.992;2024-03-08T06:51:41;41.55;;;21.45;;
30677;SDS011;73746;47.466;8.992;2024-03-08T06:54:13;42.13;;;22.62;;
30677;SDS011;73746;47.466;8.992;2024-03-08T06:56:45;38.30;;;20.25;;
30677;SDS011;73746;47.466;8.992;2024-03-08T06:59:17;40.73;;;19.67;;
30677;SDS011;73746;47.466;8.992;2024-03-08T07:01:48;41.42;;;23.52;;
30677;SDS011;73746;47.466;8.992;2024-03-08T07:04:22;43.10;;;22.90;;
30677;SDS011;73746;47.466;8.992;2024-03-08T07:06:55;39.60;;;23.45;;
30677;SDS011;73746;47.466;8.992;2024-03-08T07:09:27;39.05;;;21.70;;
30677;SDS011;73746;47.466;8.992;2024-03-08T07:11:58;49.03;;;23.20;;
30677;SDS011;73746;47.466;8.992;2024-03-08T07:14:31;41.23;;;21.05;;
30677;SDS011;73746;47.466;8.992;2024-03-08T07:17:03;39.27;;;22.80;;
30677;SDS011;73746;47.466;8.992;2024-03-08T07:19:36;42.13;;;22.67;;
30677;SDS011;73746;47.466;8.992;2024-03-08T07:22:08;35.52;;;21.97;;
30677;SDS011;73746;47.466;8.992;2024-03-08T07:24:40;38.20;;;22.30;;
30677;SDS011;73746;47.466;8.992;2024-03-08T07:27:21;47.62;;;25.35;;
30677;SDS011;73746;47.466;8.992;2024-03-08T07:29:53;35.68;;;19.17;;
30677;SDS011;73746;47.466;8.992;2024-03-08T07:32:27;41.75;;;22.93;;
30677;SDS011;73746;47.466;8.992;2024-03-08T07:35:00;35.00;;;18.42;;
30677;SDS011;73746;47.466;8.992;2024-03-08T07:37:33;38.30;;;20.10;;
30677;SDS011;73746;47.466;8.992;2024-03-08T07:40:06;37.78;;;22.82;;
30677;SDS011;73746;47.466;8.992;2024-03-08T07:42:42;39.60;;;20.70;;
30677;SDS011;73746;47.466;8.992;2024-03-08T07:45:14;37.83;;;21.85;;
30677;SDS011;73746;47.466;8.992;2024-03-08T07:47:46;46.08;;;24.82;;
30677;SDS011;73746;47.466;8.992;2024-03-08T07:50:18;42.43;;;24.43;;
30677;SDS011;73746;47.466;8.992;2024-03-08T07:52:51;40.33;;;24.63;;
30677;SDS011;73746;47.466;8.992;2024-03-08T07:55:23;43.35;;;22.60;;
30677;SDS011;73746;47.466;8.992;2024-03-08T07:57:55;44.48;;;22.17;;
30677;SDS011;73746;47.466;8.992;2024-03-08T08:00:27;37.38;;;20.27;;
30677;SDS011;73746;47.466;8.992;2024-03-08T08:03:00;40.48;;;21.45;;
30677;SDS011;73746;47.466;8.992;2024-03-08T08:08:16;37.40;;;21.33;;
30677;SDS011;73746;47.466;8.992;2024-03-08T08:10:48;36.88;;;21.93;;
30677;SDS011;73746;47.466;8.992;2024-03-08T08:13:20;40.03;;;24.55;;
30677;SDS011;73746;47.466;8.992;2024-03-08T08:15:52;34.33;;;20.17;;
30677;SDS011;73746;47.466;8.992;2024-03-08T08:18:25;41.90;;;21.17;;
30677;SDS011;73746;47.466;8.992;2024-03-08T08:20:58;36.55;;;20.90;;
30677;SDS011;73746;47.466;8.992;2024-03-08T08:23:30;38.83;;;20.72;;
30677;SDS011;73746;47.466;8.992;2024-03-08T08:26:01;31.40;;;17.15;;
30677;SDS011;73746;47.466;8.992;2024-03-08T08:31:24;34.20;;;20.27;;
30677;SDS011;73746;47.466;8.992;2024-03-08T08:33:56;39.83;;;23.70;;
30677;SDS011;73746;47.466;8.992;2024-03-08T08:36:28;37.53;;;22.27;;
30677;SDS011;73746;47.466;8.992;2024-03-08T08:39:00;55.00;;;31.85;;
30677;SDS011;73746;47.466;8.992;2024-03-08T08:41:32;30.48;;;18.85;;
30677;SDS011;73746;47.466;8.992;2024-03-08T08:44:05;46.18;;;22.35;;
30677;SDS011;73746;47.466;8.992;2024-03-08T08:46:39;33.92;;;19.92;;
30677;SDS011;73746;47.466;8.992;2024-03-08T08:49:11;35.78;;;19.82;;
30677;SDS011;73746;47.466;8.992;2024-03-08T09:05:24;50.67;;;18.73;;
30677;SDS011;73746;47.466;8.992;2024-03-08T09:07:55;34.45;;;20.43;;
30677;SDS011;73746;47.466;8.992;2024-03-08T09:10:27;40.17;;;21.27;;
30677;SDS011;73746;47.466;8.992;2024-03-08T09:13:00;41.18;;;22.20;;
30677;SDS011;73746;47.466;8.992;2024-03-08T09:15:33;38.83;;;21.80;;
30677;SDS011;73746;47.466;8.992;2024-03-08T09:18:05;34.58;;;20.00;;
30677;SDS011;73746;47.466;8.992;2024-03-08T09:20:38;32.20;;;20.77;;
30677;SDS011;73746;47.466;8.992;2024-03-08T09:25:54;34.35;;;19.82;;
30677;SDS011;73746;47.466;8.992;2024-03-08T09:28:27;30.92;;;19.25;;
30677;SDS011;73746;47.466;8.992;2024-03-08T09:30:59;33.95;;;19.70;;
30677;SDS011;73746;47.466;8.992;2024-03-08T09:33:30;35.75;;;20.77;;
30677;SDS011;73746;47.466;8.992;2024-03-08T09:36:05;28.60;;;18.05;;
30677;SDS011;73746;47.466;8.992;2024-03-08T09:38:37;33.18;;;20.27;;
30677;SDS011;73746;47.466;8.992;2024-03-08T09:41:10;37.53;;;19.55;;
30677;SDS011;73746;47.466;8.992;2024-03-08T09:43:42;30.68;;;18.60;;
30677;SDS011;73746;47.466;8.992;2024-03-08T09:46:15;31.52;;;21.48;;
30677;SDS011;73746;47.466;8.992;2024-03-08T09:48:48;34.05;;;17.90;;
30677;SDS011;73746;47.466;8.992;2024-03-08T09:51:20;39.88;;;21.95;;
30677;SDS011;73746;47.466;8.992;2024-03-08T09:53:54;33.98;;;20.95;;
30677;SDS011;73746;47.466;8.992;2024-03-08T09:56:28;30.62;;;18.17;;
30677;SDS011;73746;47.466;8.992;2024-03-08T09:59:00;30.15;;;17.40;;
30677;SDS011;73746;47.466;8.992;2024-03-08T10:01:59;33.20;;;18.67;;
30677;SDS011;73746;47.466;8.992;2024-03-08T10:04:32;30.88;;;17.25;;
30677;SDS011;73746;47.466;8.992;2024-03-08T10:07:04;31.65;;;19.30;;
30677;SDS011;73746;47.466;8.992;2024-03-08T10:09:36;28.87;;;17.87;;
30677;SDS011;73746;47.466;8.992;2024-03-08T10:12:08;30.15;;;17.98;;
30677;SDS011;73746;47.466;8.992;2024-03-08T10:14:40;29.55;;;17.70;;
30677;SDS011;73746;47.466;8.992;2024-03-08T10:17:12;28.47;;;16.07;;
30677;SDS011;73746;47.466;8.992;2024-03-08T10:19:51;29.98;;;17.57;;
30677;SDS011;73746;47.466;8.992;2024-03-08T10:22:23;36.83;;;18.67;;
30677;SDS011;73746;47.466;8.992;2024-03-08T10:24:57;29.82;;;17.42;;
30677;SDS011;73746;47.466;8.992;2024-03-08T10:27:30;30.37;;;18.60;;
30677;SDS011;73746;47.466;8.992;2024-03-08T10:30:02;26.95;;;18.00;;
30677;SDS011;73746;47.466;8.992;2024-03-08T10:32:37;30.85;;;18.10;;
30677;SDS011;73746;47.466;8.992;2024-03-08T10:35:10;30.00;;;19.35;;
30677;SDS011;73746;47.466;8.992;2024-03-08T10:37:44;28.85;;;19.55;;
30677;SDS011;73746;47.466;8.992;2024-03-08T10:40:18;29.77;;;16.35;;
30677;SDS011;73746;47.466;8.992;2024-03-08T10:42:52;32.15;;;17.02;;
30677;SDS011;73746;47.466;8.992;2024-03-08T10:45:32;33.67;;;18.37;;
30677;SDS011;73746;47.466;8.992;2024-03-08T10:48:14;30.77;;;18.90;;
30677;SDS011;73746;47.466;8.992;2024-03-08T10:53:42;28.02;;;17.90;;
30677;SDS011;73746;47.466;8.992;2024-03-08T10:56:16;27.98;;;19.55;;
30677;SDS011;73746;47.466;8.992;2024-03-08T10:58:48;27.58;;;15.75;;
30677;SDS011;73746;47.466;8.992;2024-03-08T11:01:20;28.30;;;17.17;;
30677;SDS011;73746;47.466;8.992;2024-03-08T11:03:53;26.77;;;16.95;;
30677;SDS011;73746;47.466;8.992;2024-03-08T11:06:30;24.10;;;15.68;;
30677;SDS011;73746;47.466;8.992;2024-03-08T11:09:10;26.00;;;16.12;;
30677;SDS011;73746;47.466;8.992;2024-03-08T11:14:55;24.63;;;14.80;;
30677;SDS011;73746;47.466;8.992;2024-03-08T11:20:35;28.38;;;17.17;;
30677;SDS011;73746;47.466;8.992;2024-03-08T11:23:06;27.95;;;16.30;;
30677;SDS011;73746;47.466;8.992;2024-03-08T11:25:40;25.40;;;14.87;;
30677;SDS011;73746;47.466;8.992;2024-03-08T11:28:14;29.82;;;15.95;;
30677;SDS011;73746;47.466;8.992;2024-03-08T11:33:56;22.13;;;14.55;;
30677;SDS011;73746;47.466;8.992;2024-03-08T11:36:28;25.43;;;15.78;;
30677;SDS011;73746;47.466;8.992;2024-03-08T11:39:02;23.12;;;13.18;;
30677;SDS011;73746;47.466;8.992;2024-03-08T11:41:37;25.92;;;16.12;;
30677;SDS011;73746;47.466;8.992;2024-03-08T11:44:10;30.57;;;15.58;;
30677;SDS011;73746;47.466;8.992;2024-03-08T11:46:43;26.97;;;17.45;;
30677;SDS011;73746;47.466;8.992;2024-03-08T11:49:17;25.90;;;15.88;;
30677;SDS011;73746;47.466;8.992;2024-03-08T11:51:49;27.37;;;18.48;;
30677;SDS011;73746;47.466;8.992;2024-03-08T11:54:23;26.55;;;16.37;;
30677;SDS011;73746;47.466;8.992;2024-03-08T11:56:55;24.75;;;14.55;;
30677;SDS011;73746;47.466;8.992;2024-03-08T11:59:29;27.45;;;15.75;;
30677;SDS011;73746;47.466;8.992;2024-03-08T12:02:02;27.45;;;17.27;;
30677;SDS011;73746;47.466;8.992;2024-03-08T12:04:35;28.17;;;16.45;;
30677;SDS011;73746;47.466;8.992;2024-03-08T12:07:09;34.58;;;21.12;;
30677;SDS011;73746;47.466;8.992;2024-03-08T12:09:43;28.73;;;16.45;;
30677;SDS011;73746;47.466;8.992;2024-03-08T12:12:16;29.52;;;16.52;;
30677;SDS011;73746;47.466;8.992;2024-03-08T12:14:48;28.12;;;16.97;;
30677;SDS011;73746;47.466;8.992;2024-03-08T12:17:21;23.47;;;14.35;;
30677;SDS011;73746;47.466;8.992;2024-03-08T12:19:53;27.73;;;15.18;;
30677;SDS011;73746;47.466;8.992;2024-03-08T12:22:25;21.62;;;13.85;;
30677;SDS011;73746;47.466;8.992;2024-03-08T12:25:05;24.52;;;15.08;;
30677;SDS011;73746;47.466;8.992;2024-03-08T12:27:39;26.82;;;16.25;;
30677;SDS011;73746;47.466;8.992;2024-03-08T12:30:16;25.12;;;16.20;;
30677;SDS011;73746;47.466;8.992;2024-03-08T12:32:52;25.65;;;16.00;;
30677;SDS011;73746;47.466;8.992;2024-03-08T12:35:27;24.07;;;14.85;;
30677;SDS011;73746;47.466;8.992;2024-03-08T12:38:00;26.27;;;15.78;;
30677;SDS011;73746;47.466;8.992;2024-03-08T12:40:32;27.17;;;16.00;;
30677;SDS011;73746;47.466;8.992;2024-03-08T12:43:05;24.37;;;14.33;;
30677;SDS011;73746;47.466;8.992;2024-03-08T12:45:37;23.10;;;14.75;;
30677;SDS011;73746;47.466;8.992;2024-03-08T12:48:12;26.55;;;17.27;;
30677;SDS011;73746;47.466;8.992;2024-03-08T12:50:45;22.40;;;13.98;;
30677;SDS011;73746;47.466;8.992;2024-03-08T12:53:17;24.47;;;14.98;;
30677;SDS011;73746;47.466;8.992;2024-03-08T12:55:49;30.32;;;18.17;;
30677;SDS011;73746;47.466;8.992;2024-03-08T12:58:21;25.52;;;15.53;;
30677;SDS011;73746;47.466;8.992;2024-03-08T13:00:53;25.50;;;14.93;;
30677;SDS011;73746;47.466;8.992;2024-03-08T13:03:25;25.30;;;14.68;;
30677;SDS011;73746;47.466;8.992;2024-03-08T13:05:57;24.02;;;14.43;;
30677;SDS011;73746;47.466;8.992;2024-03-08T13:08:29;23.95;;;14.53;;
30677;SDS011;73746;47.466;8.992;2024-03-08T13:11:02;24.82;;;15.93;;
30677;SDS011;73746;47.466;8.992;2024-03-08T13:13:34;23.18;;;14.13;;
30677;SDS011;73746;47.466;8.992;2024-03-08T13:16:07;24.72;;;16.42;;
30677;SDS011;73746;47.466;8.992;2024-03-08T13:18:40;22.67;;;13.65;;
30677;SDS011;73746;47.466;8.992;2024-03-08T13:21:12;25.30;;;14.70;;
30677;SDS011;73746;47.466;8.992;2024-03-08T13:23:47;25.08;;;16.70;;
30677;SDS011;73746;47.466;8.992;2024-03-08T13:26:19;33.92;;;16.67;;
30677;SDS011;73746;47.466;8.992;2024-03-08T13:28:51;24.82;;;15.65;;
30677;SDS011;73746;47.466;8.992;2024-03-08T13:31:23;23.70;;;13.75;;
30677;SDS011;73746;47.466;8.992;2024-03-08T13:33:55;24.72;;;15.85;;
30677;SDS011;73746;47.466;8.992;2024-03-08T13:36:28;24.70;;;15.75;;
30677;SDS011;73746;47.466;8.992;2024-03-08T13:39:01;27.60;;;16.40;;
30677;SDS011;73746;47.466;8.992;2024-03-08T13:41:34;23.83;;;15.32;;
30677;SDS011;73746;47.466;8.992;2024-03-08T13:44:07;25.50;;;16.42;;
30677;SDS011;73746;47.466;8.992;2024-03-08T13:46:39;27.02;;;16.40;;
30677;SDS011;73746;47.466;8.992;2024-03-08T13:49:11;23.57;;;15.08;;
30677;SDS011;73746;47.466;8.992;2024-03-08T13:51:43;22.55;;;13.65;;
30677;SDS011;73746;47.466;8.992;2024-03-08T13:54:15;23.87;;;15.75;;
30677;SDS011;73746;47.466;8.992;2024-03-08T13:56:46;25.10;;;15.35;;
30677;SDS011;73746;47.466;8.992;2024-03-08T13:59:18;22.93;;;15.35;;
30677;SDS011;73746;47.466;8.992;2024-03-08T14:01:51;24.55;;;15.48;;
30677;SDS011;73746;47.466;8.992;2024-03-08T14:04:23;27.73;;;14.43;;
30677;SDS011;73746;47.466;8.992;2024-03-08T14:06:56;21.12;;;14.03;;
30677;SDS011;73746;47.466;8.992;2024-03-08T14:09:30;22.55;;;14.30;;
30677;SDS011;73746;47.466;8.992;2024-03-08T14:12:05;25.68;;;15.80;;
30677;SDS011;73746;47.466;8.992;2024-03-08T14:14:37;20.68;;;13.00;;
30677;SDS011;73746;47.466;8.992;2024-03-08T14:17:11;22.32;;;14.43;;
30677;SDS011;73746;47.466;8.992;2024-03-08T14:19:44;26.50;;;15.03;;
30677;SDS011;73746;47.466;8.992;2024-03-08T14:22:16;20.32;;;12.45;;
30677;SDS011;73746;47.466;8.992;2024-03-08T14:24:49;22.65;;;14.30;;
30677;SDS011;73746;47.466;8.992;2024-03-08T14:27:21;21.10;;;13.20;;
30677;SDS011;73746;47.466;8.992;2024-03-08T14:29:53;25.10;;;15.05;;
30677;SDS011;73746;47.466;8.992;2024-03-08T14:32:25;23.00;;;14.53;;
30677;SDS011;73746;47.466;8.992;2024-03-08T14:34:58;21.12;;;13.38;;
30677;SDS011;73746;47.466;8.992;2024-03-08T14:37:29;23.95;;;16.57;;
30677;SDS011;73746;47.466;8.992;2024-03-08T14:40:01;20.85;;;13.68;;
30677;SDS011;73746;47.466;8.992;2024-03-08T14:42:34;20.88;;;14.30;;
30677;SDS011;73746;47.466;8.992;2024-03-08T14:45:07;19.35;;;12.45;;
30677;SDS011;73746;47.466;8.992;2024-03-08T14:47:39;18.80;;;12.35;;
30677;SDS011;73746;47.466;8.992;2024-03-08T14:50:11;18.00;;;11.08;;
30677;SDS011;73746;47.466;8.992;2024-03-08T14:52:45;16.27;;;12.88;;
30677;SDS011;73746;47.466;8.992;2024-03-08T14:55:18;18.70;;;12.33;;
30677;SDS011;73746;47.466;8.992;2024-03-08T14:57:51;17.82;;;12.23;;
30677;SDS011;73746;47.466;8.992;2024-03-08T15:00:23;18.12;;;13.10;;
30677;SDS011;73746;47.466;8.992;2024-03-08T15:02:56;17.77;;;12.85;;
30677;SDS011;73746;47.466;8.992;2024-03-08T15:05:28;17.77;;;12.18;;
30677;SDS011;73746;47.466;8.992;2024-03-08T15:08:01;18.87;;;10.85;;
30677;SDS011;73746;47.466;8.992;2024-03-08T15:10:35;18.52;;;11.45;;
30677;SDS011;73746;47.466;8.992;2024-03-08T15:13:09;19.02;;;12.35;;
30677;SDS011;73746;47.466;8.992;2024-03-08T15:15:46;18.10;;;12.23;;
30677;SDS011;73746;47.466;8.992;2024-03-08T15:18:19;20.95;;;13.28;;
30677;SDS011;73746;47.466;8.992;2024-03-08T15:20:55;17.55;;;11.78;;
30677;SDS011;73746;47.466;8.992;2024-03-08T15:23:26;22.65;;;14.38;;
30677;SDS011;73746;47.466;8.992;2024-03-08T15:25:58;18.35;;;12.78;;
30677;SDS011;73746;47.466;8.992;2024-03-08T15:28:31;20.95;;;14.13;;
30677;SDS011;73746;47.466;8.992;2024-03-08T15:31:06;19.90;;;13.48;;
30677;SDS011;73746;47.466;8.992;2024-03-08T15:33:39;20.72;;;13.40;;
30677;SDS011;73746;47.466;8.992;2024-03-08T15:36:14;24.07;;;13.75;;
30677;SDS011;73746;47.466;8.992;2024-03-08T15:38:46;20.08;;;13.80;;
30677;SDS011;73746;47.466;8.992;2024-03-08T15:41:19;21.25;;;13.70;;
30677;SDS011;73746;47.466;8.992;2024-03-08T15:43:51;17.10;;;13.08;;
30677;SDS011;73746;47.466;8.992;2024-03-08T15:46:24;22.10;;;15.25;;
30677;SDS011;73746;47.466;8.992;2024-03-08T15:48:56;18.75;;;13.45;;
30677;SDS011;73746;47.466;8.992;2024-03-08T15:54:11;18.90;;;12.65;;
30677;SDS011;73746;47.466;8.992;2024-03-08T15:56:42;18.73;;;12.93;;
30677;SDS011;73746;47.466;8.992;2024-03-08T15:59:14;18.02;;;12.73;;
30677;SDS011;73746;47.466;8.992;2024-03-08T16:01:46;19.52;;;12.00;;
30677;SDS011;73746;47.466;8.992;2024-03-08T16:04:21;16.15;;;11.48;;
30677;SDS011;73746;47.466;8.992;2024-03-08T16:06:54;17.40;;;12.68;;
30677;SDS011;73746;47.466;8.992;2024-03-08T16:09:26;15.43;;;11.05;;